sensor_id;sensor_type;location;lat;lon;timestamp;temperature;humidity
53114;DHT22;39009;53.166;6.232;2022-10-17T00:01:05;11.90;99.90
53114;DHT22;39009;53.166;6.232;2022-10-17T00:03:32;11.90;99.90
53114;DHT22;39009;53.166;6.232;2022-10-17T00:05:57;11.90;99.90
53114;DHT22;39009;53.166;6.232;2022-10-17T00:08:23;11.90;99.90
53114;DHT22;39009;53.166;6.232;2022-10-17T00:10:55;11.90;99.90
53114;DHT22;39009;53.166;6.232;2022-10-17T00:13:21;11.90;99.90
53114;DHT22;39009;53.166;6.232;2022-10-17T00:15:47;12.00;99.90
53114;DHT22;39009;53.166;6.232;2022-10-17T00:18:12;12.00;99.90
53114;DHT22;39009;53.166;6.232;2022-10-17T00:20:38;11.90;99.90
53114;DHT22;39009;53.166;6.232;2022-10-17T00:23:03;12.00;99.90
53114;DHT22;39009;53.166;6.232;2022-10-17T00:25:29;12.00;99.90
53114;DHT22;39009;53.166;6.232;2022-10-17T00:27:54;12.00;99.90
53114;DHT22;39009;53.166;6.232;2022-10-17T00:30:20;12.10;99.90
53114;DHT22;39009;53.166;6.232;2022-10-17T00:32:45;12.10;99.90
53114;DHT22;39009;53.166;6.232;2022-10-17T00:35:11;12.10;99.90
53114;DHT22;39009;53.166;6.232;2022-10-17T00:37:37;12.10;99.90
53114;DHT22;39009;53.166;6.232;2022-10-17T00:40:03;12.10;99.90
53114;DHT22;39009;53.166;6.232;2022-10-17T00:42:29;12.10;99.90
53114;DHT22;39009;53.166;6.232;2022-10-17T00:47:26;12.20;99.90
53114;DHT22;39009;53.166;6.232;2022-10-17T00:49:52;12.20;99.90
53114;DHT22;39009;53.166;6.232;2022-10-17T00:52:19;12.20;99.90
53114;DHT22;39009;53.166;6.232;2022-10-17T00:54:47;12.20;99.90
53114;DHT22;39009;53.166;6.232;2022-10-17T00:57:14;12.20;99.90
53114;DHT22;39009;53.166;6.232;2022-10-17T00:59:41;12.20;99.90
53114;DHT22;39009;53.166;6.232;2022-10-17T01:02:08;12.20;99.90
53114;DHT22;39009;53.166;6.232;2022-10-17T01:04:37;12.20;99.90
53114;DHT22;39009;53.166;6.232;2022-10-17T01:07:03;12.20;99.90
53114;DHT22;39009;53.166;6.232;2022-10-17T01:09:28;12.20;99.90
53114;DHT22;39009;53.166;6.232;2022-10-17T01:17:12;12.20;99.90
53114;DHT22;39009;53.166;6.232;2022-10-17T01:19:50;12.20;99.90
53114;DHT22;39009;53.166;6.232;2022-10-17T01:22:26;12.20;99.90
53114;DHT22;39009;53.166;6.232;2022-10-17T01:32:44;12.30;99.90
53114;DHT22;39009;53.166;6.232;2022-10-17T01:40:06;12.40;99.90
53114;DHT22;39009;53.166;6.232;2022-10-17T01:45:16;12.40;99.90
53114;DHT22;39009;53.166;6.232;2022-10-17T01:47:42;12.40;99.90
53114;DHT22;39009;53.166;6.232;2022-10-17T01:50:28;12.40;99.90
53114;DHT22;39009;53.166;6.232;2022-10-17T01:52:56;12.30;99.90
53114;DHT22;39009;53.166;6.232;2022-10-17T01:55:25;12.30;99.90
53114;DHT22;39009;53.166;6.232;2022-10-17T01:57:54;12.20;99.90
53114;DHT22;39009;53.166;6.232;2022-10-17T02:00:21;12.20;99.90
53114;DHT22;39009;53.166;6.232;2022-10-17T02:02:48;12.20;99.90
53114;DHT22;39009;53.166;6.232;2022-10-17T02:05:17;12.10;99.90
53114;DHT22;39009;53.166;6.232;2022-10-17T02:07:44;12.10;99.90
53114;DHT22;39009;53.166;6.232;2022-10-17T02:10:12;12.00;99.90
53114;DHT22;39009;53.166;6.232;2022-10-17T02:12:45;12.10;99.90
53114;DHT22;39009;53.166;6.232;2022-10-17T02:20:09;12.00;99.90
53114;DHT22;39009;53.166;6.232;2022-10-17T02:27:54;11.90;99.90
53114;DHT22;39009;53.166;6.232;2022-10-17T02:32:48;11.90;99.90
53114;DHT22;39009;53.166;6.232;2022-10-17T02:35:16;12.00;99.90
53114;DHT22;39009;53.166;6.232;2022-10-17T02:37:42;11.90;99.90
53114;DHT22;39009;53.166;6.232;2022-10-17T02:40:09;12.00;99.90
53114;DHT22;39009;53.166;6.232;2022-10-17T02:42:35;11.90;99.90
53114;DHT22;39009;53.166;6.232;2022-10-17T02:45:01;11.90;99.90
53114;DHT22;39009;53.166;6.232;2022-10-17T02:47:28;12.00;99.90
53114;DHT22;39009;53.166;6.232;2022-10-17T02:49:56;11.90;99.90
53114;DHT22;39009;53.166;6.232;2022-10-17T02:52:32;12.00;99.90
53114;DHT22;39009;53.166;6.232;2022-10-17T02:59:50;12.00;99.90
53114;DHT22;39009;53.166;6.232;2022-10-17T03:02:16;12.00;99.90
53114;DHT22;39009;53.166;6.232;2022-10-17T03:04:42;12.00;99.90
53114;DHT22;39009;53.166;6.232;2022-10-17T03:07:08;12.00;99.90
53114;DHT22;39009;53.166;6.232;2022-10-17T03:09:33;12.00;99.90
53114;DHT22;39009;53.166;6.232;2022-10-17T03:11:59;12.00;99.90
53114;DHT22;39009;53.166;6.232;2022-10-17T03:14:25;12.00;99.90
53114;DHT22;39009;53.166;6.232;2022-10-17T03:16:50;12.00;99.90
53114;DHT22;39009;53.166;6.232;2022-10-17T03:19:16;12.00;99.90
53114;DHT22;39009;53.166;6.232;2022-10-17T03:21:41;12.10;99.90
53114;DHT22;39009;53.166;6.232;2022-10-17T03:24:07;12.10;99.90
53114;DHT22;39009;53.166;6.232;2022-10-17T03:26:32;12.10;99.90
53114;DHT22;39009;53.166;6.232;2022-10-17T03:28:58;12.10;99.90
53114;DHT22;39009;53.166;6.232;2022-10-17T03:31:24;12.10;99.90
53114;DHT22;39009;53.166;6.232;2022-10-17T03:33:49;12.10;99.90
53114;DHT22;39009;53.166;6.232;2022-10-17T03:36:15;12.50;99.90
53114;DHT22;39009;53.166;6.232;2022-10-17T03:38:41;12.10;99.90
53114;DHT22;39009;53.166;6.232;2022-10-17T03:41:07;12.10;99.90
53114;DHT22;39009;53.166;6.232;2022-10-17T03:43:33;12.10;99.90
53114;DHT22;39009;53.166;6.232;2022-10-17T03:45:59;12.10;99.90
53114;DHT22;39009;53.166;6.232;2022-10-17T03:48:24;12.10;99.90
53114;DHT22;39009;53.166;6.232;2022-10-17T03:50:50;12.20;99.90
53114;DHT22;39009;53.166;6.232;2022-10-17T03:53:16;12.20;99.90
53114;DHT22;39009;53.166;6.232;2022-10-17T03:55:41;12.20;99.90
53114;DHT22;39009;53.166;6.232;2022-10-17T03:58:07;12.20;99.90
53114;DHT22;39009;53.166;6.232;2022-10-17T04:00:34;12.30;99.90
53114;DHT22;39009;53.166;6.232;2022-10-17T04:03:00;12.30;99.90
53114;DHT22;39009;53.166;6.232;2022-10-17T04:05:25;12.30;99.90
53114;DHT22;39009;53.166;6.232;2022-10-17T04:07:51;12.30;99.90
53114;DHT22;39009;53.166;6.232;2022-10-17T04:10:16;12.40;99.90
53114;DHT22;39009;53.166;6.232;2022-10-17T04:12:42;12.40;99.90
53114;DHT22;39009;53.166;6.232;2022-10-17T04:15:08;12.40;99.90
53114;DHT22;39009;53.166;6.232;2022-10-17T04:17:34;12.50;99.90
53114;DHT22;39009;53.166;6.232;2022-10-17T04:19:59;12.50;99.90
53114;DHT22;39009;53.166;6.232;2022-10-17T04:22:25;12.50;99.90
53114;DHT22;39009;53.166;6.232;2022-10-17T04:24:51;12.50;99.90
53114;DHT22;39009;53.166;6.232;2022-10-17T04:27:16;12.60;99.90
53114;DHT22;39009;53.166;6.232;2022-10-17T04:29:42;12.60;99.90
53114;DHT22;39009;53.166;6.232;2022-10-17T04:32:08;12.60;99.90
53114;DHT22;39009;53.166;6.232;2022-10-17T04:34:34;12.60;99.90
53114;DHT22;39009;53.166;6.232;2022-10-17T04:36:59;12.70;99.90
53114;DHT22;39009;53.166;6.232;2022-10-17T04:39:25;12.70;99.90
53114;DHT22;39009;53.166;6.232;2022-10-17T04:41:50;12.80;99.90
53114;DHT22;39009;53.166;6.232;2022-10-17T04:44:16;12.70;99.90
53114;DHT22;39009;53.166;6.232;2022-10-17T04:46:42;12.80;99.90
53114;DHT22;39009;53.166;6.232;2022-10-17T04:49:07;12.80;99.90
53114;DHT22;39009;53.166;6.232;2022-10-17T04:51:33;12.80;99.90
53114;DHT22;39009;53.166;6.232;2022-10-17T04:53:59;12.80;99.90
53114;DHT22;39009;53.166;6.232;2022-10-17T04:56:24;12.80;99.90
53114;DHT22;39009;53.166;6.232;2022-10-17T04:58:50;12.80;99.90
53114;DHT22;39009;53.166;6.232;2022-10-17T05:01:17;12.90;99.90
53114;DHT22;39009;53.166;6.232;2022-10-17T05:03:43;12.90;99.90
53114;DHT22;39009;53.166;6.232;2022-10-17T05:06:10;12.90;99.90
53114;DHT22;39009;53.166;6.232;2022-10-17T05:08:36;12.90;99.90
53114;DHT22;39009;53.166;6.232;2022-10-17T05:11:02;12.90;99.90
53114;DHT22;39009;53.166;6.232;2022-10-17T05:13:27;12.90;99.90
53114;DHT22;39009;53.166;6.232;2022-10-17T05:15:53;12.90;99.90
53114;DHT22;39009;53.166;6.232;2022-10-17T05:18:22;12.90;99.90
53114;DHT22;39009;53.166;6.232;2022-10-17T05:20:47;12.90;99.90
53114;DHT22;39009;53.166;6.232;2022-10-17T05:23:13;13.00;99.90
53114;DHT22;39009;53.166;6.232;2022-10-17T05:25:38;13.00;99.90
53114;DHT22;39009;53.166;6.232;2022-10-17T05:28:04;13.00;99.90
53114;DHT22;39009;53.166;6.232;2022-10-17T05:30:29;13.00;99.90
53114;DHT22;39009;53.166;6.232;2022-10-17T05:32:55;13.00;99.90
53114;DHT22;39009;53.166;6.232;2022-10-17T05:35:21;13.00;99.90
53114;DHT22;39009;53.166;6.232;2022-10-17T05:37:46;12.90;99.90
53114;DHT22;39009;53.166;6.232;2022-10-17T05:40:12;13.00;99.90
53114;DHT22;39009;53.166;6.232;2022-10-17T05:42:37;12.90;99.90
53114;DHT22;39009;53.166;6.232;2022-10-17T05:45:03;13.00;99.90
53114;DHT22;39009;53.166;6.232;2022-10-17T05:47:29;13.00;99.90
53114;DHT22;39009;53.166;6.232;2022-10-17T05:49:54;13.00;99.90
53114;DHT22;39009;53.166;6.232;2022-10-17T05:52:20;13.00;99.90
53114;DHT22;39009;53.166;6.232;2022-10-17T05:54:45;13.00;99.90
53114;DHT22;39009;53.166;6.232;2022-10-17T05:57:11;13.00;99.90
53114;DHT22;39009;53.166;6.232;2022-10-17T05:59:36;13.00;99.90
53114;DHT22;39009;53.166;6.232;2022-10-17T06:02:02;13.00;99.90
53114;DHT22;39009;53.166;6.232;2022-10-17T06:04:27;13.00;99.90
53114;DHT22;39009;53.166;6.232;2022-10-17T06:06:53;13.00;99.90
53114;DHT22;39009;53.166;6.232;2022-10-17T06:09:20;13.10;99.90
53114;DHT22;39009;53.166;6.232;2022-10-17T06:11:46;13.10;99.90
53114;DHT22;39009;53.166;6.232;2022-10-17T06:14:12;13.10;99.90
53114;DHT22;39009;53.166;6.232;2022-10-17T06:16:37;13.10;99.90
53114;DHT22;39009;53.166;6.232;2022-10-17T06:19:03;13.20;99.90
53114;DHT22;39009;53.166;6.232;2022-10-17T06:21:28;13.20;99.90
53114;DHT22;39009;53.166;6.232;2022-10-17T06:24:00;13.30;99.90
53114;DHT22;39009;53.166;6.232;2022-10-17T06:26:26;13.30;99.90
53114;DHT22;39009;53.166;6.232;2022-10-17T06:28:53;13.40;99.90
53114;DHT22;39009;53.166;6.232;2022-10-17T06:31:18;13.40;99.90
53114;DHT22;39009;53.166;6.232;2022-10-17T06:33:44;13.50;99.90
53114;DHT22;39009;53.166;6.232;2022-10-17T06:36:10;13.50;99.90
53114;DHT22;39009;53.166;6.232;2022-10-17T06:38:36;13.60;99.90
53114;DHT22;39009;53.166;6.232;2022-10-17T06:41:06;13.60;99.90
53114;DHT22;39009;53.166;6.232;2022-10-17T06:43:36;13.70;99.90
53114;DHT22;39009;53.166;6.232;2022-10-17T06:46:01;13.70;99.90
53114;DHT22;39009;53.166;6.232;2022-10-17T06:48:27;13.70;99.90
53114;DHT22;39009;53.166;6.232;2022-10-17T06:50:53;13.80;99.90
53114;DHT22;39009;53.166;6.232;2022-10-17T06:53:18;13.80;99.90
53114;DHT22;39009;53.166;6.232;2022-10-17T06:55:44;13.90;99.90
53114;DHT22;39009;53.166;6.232;2022-10-17T06:58:09;13.90;99.90
53114;DHT22;39009;53.166;6.232;2022-10-17T07:00:35;13.90;99.90
53114;DHT22;39009;53.166;6.232;2022-10-17T07:03:01;13.90;99.90
53114;DHT22;39009;53.166;6.232;2022-10-17T07:05:26;13.90;99.90
53114;DHT22;39009;53.166;6.232;2022-10-17T07:07:52;14.00;99.90
53114;DHT22;39009;53.166;6.232;2022-10-17T07:10:17;14.10;99.90
53114;DHT22;39009;53.166;6.232;2022-10-17T07:12:43;14.20;99.90
53114;DHT22;39009;53.166;6.232;2022-10-17T07:15:10;14.30;99.90
53114;DHT22;39009;53.166;6.232;2022-10-17T07:17:35;14.40;99.90
53114;DHT22;39009;53.166;6.232;2022-10-17T07:20:01;14.60;99.90
53114;DHT22;39009;53.166;6.232;2022-10-17T07:22:27;14.60;99.90
53114;DHT22;39009;53.166;6.232;2022-10-17T07:24:53;14.70;99.90
53114;DHT22;39009;53.166;6.232;2022-10-17T07:27:18;14.80;99.90
53114;DHT22;39009;53.166;6.232;2022-10-17T07:29:44;14.80;99.90
53114;DHT22;39009;53.166;6.232;2022-10-17T07:32:09;14.90;99.90
53114;DHT22;39009;53.166;6.232;2022-10-17T07:34:35;15.00;99.90
53114;DHT22;39009;53.166;6.232;2022-10-17T07:37:01;15.20;99.90
53114;DHT22;39009;53.166;6.232;2022-10-17T07:39:27;15.30;99.90
53114;DHT22;39009;53.166;6.232;2022-10-17T07:41:53;15.40;99.90
53114;DHT22;39009;53.166;6.232;2022-10-17T07:44:18;15.30;99.90
53114;DHT22;39009;53.166;6.232;2022-10-17T07:46:44;15.30;99.90
53114;DHT22;39009;53.166;6.232;2022-10-17T07:49:09;15.30;99.90
53114;DHT22;39009;53.166;6.232;2022-10-17T07:51:35;15.30;99.90
53114;DHT22;39009;53.166;6.232;2022-10-17T07:54:01;15.30;99.90
53114;DHT22;39009;53.166;6.232;2022-10-17T07:56:26;15.40;99.90
53114;DHT22;39009;53.166;6.232;2022-10-17T07:58:54;15.50;99.90
53114;DHT22;39009;53.166;6.232;2022-10-17T08:01:19;15.60;99.90
53114;DHT22;39009;53.166;6.232;2022-10-17T08:03:46;15.70;99.90
53114;DHT22;39009;53.166;6.232;2022-10-17T08:06:13;15.90;99.90
53114;DHT22;39009;53.166;6.232;2022-10-17T08:08:39;15.90;99.90
53114;DHT22;39009;53.166;6.232;2022-10-17T08:11:05;15.90;99.90
53114;DHT22;39009;53.166;6.232;2022-10-17T08:13:31;16.00;99.90
53114;DHT22;39009;53.166;6.232;2022-10-17T08:15:58;16.00;99.90
53114;DHT22;39009;53.166;6.232;2022-10-17T08:18:23;16.10;99.90
53114;DHT22;39009;53.166;6.232;2022-10-17T08:20:49;16.10;99.90
53114;DHT22;39009;53.166;6.232;2022-10-17T08:23:14;16.10;99.90
53114;DHT22;39009;53.166;6.232;2022-10-17T08:25:40;16.20;99.90
53114;DHT22;39009;53.166;6.232;2022-10-17T08:28:06;16.20;99.90
53114;DHT22;39009;53.166;6.232;2022-10-17T08:30:31;16.20;99.90
53114;DHT22;39009;53.166;6.232;2022-10-17T08:32:57;16.20;99.90
53114;DHT22;39009;53.166;6.232;2022-10-17T08:35:22;16.30;99.90
53114;DHT22;39009;53.166;6.232;2022-10-17T08:37:48;16.30;99.90
53114;DHT22;39009;53.166;6.232;2022-10-17T08:40:20;16.40;99.90
53114;DHT22;39009;53.166;6.232;2022-10-17T08:43:06;16.40;99.90
53114;DHT22;39009;53.166;6.232;2022-10-17T08:48:00;16.50;99.90
53114;DHT22;39009;53.166;6.232;2022-10-17T08:50:35;16.40;99.90
53114;DHT22;39009;53.166;6.232;2022-10-17T08:53:05;16.50;99.90
53114;DHT22;39009;53.166;6.232;2022-10-17T08:55:39;16.50;99.90
53114;DHT22;39009;53.166;6.232;2022-10-17T08:58:13;16.50;99.90
53114;DHT22;39009;53.166;6.232;2022-10-17T09:00:40;16.50;99.90
53114;DHT22;39009;53.166;6.232;2022-10-17T09:03:18;16.60;99.90
53114;DHT22;39009;53.166;6.232;2022-10-17T09:05:53;16.60;99.90
53114;DHT22;39009;53.166;6.232;2022-10-17T09:08:37;16.60;99.90
53114;DHT22;39009;53.166;6.232;2022-10-17T09:13:46;16.40;99.90
53114;DHT22;39009;53.166;6.232;2022-10-17T09:16:31;16.50;99.90
53114;DHT22;39009;53.166;6.232;2022-10-17T09:19:00;16.60;99.90
53114;DHT22;39009;53.166;6.232;2022-10-17T09:24:02;16.60;99.90
53114;DHT22;39009;53.166;6.232;2022-10-17T09:26:28;16.60;99.90
53114;DHT22;39009;53.166;6.232;2022-10-17T09:28:55;16.60;99.90
53114;DHT22;39009;53.166;6.232;2022-10-17T09:31:24;16.50;99.90
53114;DHT22;39009;53.166;6.232;2022-10-17T09:33:53;16.50;99.90
53114;DHT22;39009;53.166;6.232;2022-10-17T09:36:20;16.40;99.90
53114;DHT22;39009;53.166;6.232;2022-10-17T09:38:48;16.40;99.90
53114;DHT22;39009;53.166;6.232;2022-10-17T09:41:16;16.30;99.90
53114;DHT22;39009;53.166;6.232;2022-10-17T09:43:42;16.30;99.90
53114;DHT22;39009;53.166;6.232;2022-10-17T09:46:12;16.30;99.90
53114;DHT22;39009;53.166;6.232;2022-10-17T09:48:45;16.20;99.90
53114;DHT22;39009;53.166;6.232;2022-10-17T09:51:13;16.20;99.90
53114;DHT22;39009;53.166;6.232;2022-10-17T09:53:39;16.20;99.90
53114;DHT22;39009;53.166;6.232;2022-10-17T09:56:07;16.20;99.90
53114;DHT22;39009;53.166;6.232;2022-10-17T09:58:39;16.10;99.90
53114;DHT22;39009;53.166;6.232;2022-10-17T10:01:34;16.10;99.90
53114;DHT22;39009;53.166;6.232;2022-10-17T10:04:07;16.10;99.90
53114;DHT22;39009;53.166;6.232;2022-10-17T10:06:33;16.10;99.90
53114;DHT22;39009;53.166;6.232;2022-10-17T10:08:59;16.10;99.90
53114;DHT22;39009;53.166;6.232;2022-10-17T10:11:44;16.10;99.90
53114;DHT22;39009;53.166;6.232;2022-10-17T10:14:11;16.00;99.90
53114;DHT22;39009;53.166;6.232;2022-10-17T10:16:40;16.00;99.90
53114;DHT22;39009;53.166;6.232;2022-10-17T10:19:18;16.00;99.90
53114;DHT22;39009;53.166;6.232;2022-10-17T10:21:53;16.10;99.90
53114;DHT22;39009;53.166;6.232;2022-10-17T10:24:19;16.10;99.90
53114;DHT22;39009;53.166;6.232;2022-10-17T10:26:45;16.00;99.90
53114;DHT22;39009;53.166;6.232;2022-10-17T10:29:26;16.10;99.90
53114;DHT22;39009;53.166;6.232;2022-10-17T10:31:55;16.10;99.90
53114;DHT22;39009;53.166;6.232;2022-10-17T10:34:23;16.10;99.90
53114;DHT22;39009;53.166;6.232;2022-10-17T10:36:51;16.10;99.90
53114;DHT22;39009;53.166;6.232;2022-10-17T10:39:23;16.10;99.90
53114;DHT22;39009;53.166;6.232;2022-10-17T10:41:50;16.20;99.90
53114;DHT22;39009;53.166;6.232;2022-10-17T10:44:15;16.20;99.90
53114;DHT22;39009;53.166;6.232;2022-10-17T10:46:42;16.20;99.90
53114;DHT22;39009;53.166;6.232;2022-10-17T10:49:25;16.20;99.90
53114;DHT22;39009;53.166;6.232;2022-10-17T10:51:51;16.20;99.90
53114;DHT22;39009;53.166;6.232;2022-10-17T10:56:45;16.20;99.90
53114;DHT22;39009;53.166;6.232;2022-10-17T10:59:23;16.30;99.90
53114;DHT22;39009;53.166;6.232;2022-10-17T11:04:20;16.30;99.90
53114;DHT22;39009;53.166;6.232;2022-10-17T11:06:49;16.40;99.90
53114;DHT22;39009;53.166;6.232;2022-10-17T11:12:04;16.40;99.90
53114;DHT22;39009;53.166;6.232;2022-10-17T11:14:42;16.40;99.90
53114;DHT22;39009;53.166;6.232;2022-10-17T11:19:57;16.10;99.90
53114;DHT22;39009;53.166;6.232;2022-10-17T11:22:28;16.40;99.90
53114;DHT22;39009;53.166;6.232;2022-10-17T11:24:57;16.40;99.90
53114;DHT22;39009;53.166;6.232;2022-10-17T11:27:24;16.40;99.90
53114;DHT22;39009;53.166;6.232;2022-10-17T11:29:50;16.40;99.90
53114;DHT22;39009;53.166;6.232;2022-10-17T11:32:25;16.40;99.90
53114;DHT22;39009;53.166;6.232;2022-10-17T11:34:53;16.50;99.90
53114;DHT22;39009;53.166;6.232;2022-10-17T11:37:22;16.50;99.90
53114;DHT22;39009;53.166;6.232;2022-10-17T11:39:51;16.50;99.90
53114;DHT22;39009;53.166;6.232;2022-10-17T11:42:20;16.50;99.90
53114;DHT22;39009;53.166;6.232;2022-10-17T11:44:49;16.50;99.90
53114;DHT22;39009;53.166;6.232;2022-10-17T11:49:53;16.50;99.90
53114;DHT22;39009;53.166;6.232;2022-10-17T11:54:51;16.60;99.90
53114;DHT22;39009;53.166;6.232;2022-10-17T11:57:36;16.60;99.90
53114;DHT22;39009;53.166;6.232;2022-10-17T12:05:23;16.50;99.90
53114;DHT22;39009;53.166;6.232;2022-10-17T12:07:54;16.60;99.90
53114;DHT22;39009;53.166;6.232;2022-10-17T12:10:27;16.70;99.90
53114;DHT22;39009;53.166;6.232;2022-10-17T12:12:55;16.70;99.90
53114;DHT22;39009;53.166;6.232;2022-10-17T12:17:59;17.00;99.90
53114;DHT22;39009;53.166;6.232;2022-10-17T12:20:28;17.10;99.90
53114;DHT22;39009;53.166;6.232;2022-10-17T12:22:57;17.10;99.90
53114;DHT22;39009;53.166;6.232;2022-10-17T12:27:50;17.00;99.90
53114;DHT22;39009;53.166;6.232;2022-10-17T12:30:27;16.90;99.90
53114;DHT22;39009;53.166;6.232;2022-10-17T12:35:19;16.80;99.90
53114;DHT22;39009;53.166;6.232;2022-10-17T12:40:51;16.70;99.90
53114;DHT22;39009;53.166;6.232;2022-10-17T12:48:21;16.60;99.90
53114;DHT22;39009;53.166;6.232;2022-10-17T12:51:00;16.50;99.90
53114;DHT22;39009;53.166;6.232;2022-10-17T12:53:31;16.40;99.90
53114;DHT22;39009;53.166;6.232;2022-10-17T12:55:59;16.40;99.90
53114;DHT22;39009;53.166;6.232;2022-10-17T12:58:28;16.30;99.90
53114;DHT22;39009;53.166;6.232;2022-10-17T13:00:58;16.30;99.90
53114;DHT22;39009;53.166;6.232;2022-10-17T13:03:25;16.20;99.90
53114;DHT22;39009;53.166;6.232;2022-10-17T13:05:53;16.10;99.90
53114;DHT22;39009;53.166;6.232;2022-10-17T13:08:21;16.10;99.90
53114;DHT22;39009;53.166;6.232;2022-10-17T13:10:48;16.10;99.90
53114;DHT22;39009;53.166;6.232;2022-10-17T13:15:44;16.10;99.90
53114;DHT22;39009;53.166;6.232;2022-10-17T13:18:12;16.10;99.90
53114;DHT22;39009;53.166;6.232;2022-10-17T13:20:41;16.00;99.90
53114;DHT22;39009;53.166;6.232;2022-10-17T13:23:20;16.00;99.90
53114;DHT22;39009;53.166;6.232;2022-10-17T13:25:46;16.00;99.90
53114;DHT22;39009;53.166;6.232;2022-10-17T13:28:12;16.00;99.90
53114;DHT22;39009;53.166;6.232;2022-10-17T13:30:38;16.00;99.90
53114;DHT22;39009;53.166;6.232;2022-10-17T13:33:15;16.00;99.90
53114;DHT22;39009;53.166;6.232;2022-10-17T13:35:42;16.10;99.90
53114;DHT22;39009;53.166;6.232;2022-10-17T13:38:09;16.10;99.90
53114;DHT22;39009;53.166;6.232;2022-10-17T13:40:38;16.00;99.90
53114;DHT22;39009;53.166;6.232;2022-10-17T13:43:08;16.10;99.90
53114;DHT22;39009;53.166;6.232;2022-10-17T13:45:37;16.00;99.90
53114;DHT22;39009;53.166;6.232;2022-10-17T13:48:03;16.00;99.90
53114;DHT22;39009;53.166;6.232;2022-10-17T13:50:32;16.00;99.90
53114;DHT22;39009;53.166;6.232;2022-10-17T13:55:49;16.00;99.90
53114;DHT22;39009;53.166;6.232;2022-10-17T13:58:15;16.00;99.90
53114;DHT22;39009;53.166;6.232;2022-10-17T14:00:43;16.00;99.90
53114;DHT22;39009;53.166;6.232;2022-10-17T14:03:09;16.10;99.90
53114;DHT22;39009;53.166;6.232;2022-10-17T14:05:35;16.20;99.90
53114;DHT22;39009;53.166;6.232;2022-10-17T14:08:21;16.20;99.90
53114;DHT22;39009;53.166;6.232;2022-10-17T14:10:46;16.20;99.90
53114;DHT22;39009;53.166;6.232;2022-10-17T14:13:17;16.20;99.90
53114;DHT22;39009;53.166;6.232;2022-10-17T14:15:43;16.20;99.90
53114;DHT22;39009;53.166;6.232;2022-10-17T14:18:13;16.20;99.90
53114;DHT22;39009;53.166;6.232;2022-10-17T14:20:44;16.20;99.90
53114;DHT22;39009;53.166;6.232;2022-10-17T14:28:30;16.10;99.90
53114;DHT22;39009;53.166;6.232;2022-10-17T14:31:07;16.10;99.90
53114;DHT22;39009;53.166;6.232;2022-10-17T14:33:33;16.10;99.90
53114;DHT22;39009;53.166;6.232;2022-10-17T14:36:00;16.10;99.90
53114;DHT22;39009;53.166;6.232;2022-10-17T14:38:27;16.10;99.90
53114;DHT22;39009;53.166;6.232;2022-10-17T14:43:20;16.00;99.90
53114;DHT22;39009;53.166;6.232;2022-10-17T14:45:46;16.00;99.90
53114;DHT22;39009;53.166;6.232;2022-10-17T14:48:13;16.00;99.90
53114;DHT22;39009;53.166;6.232;2022-10-17T14:50:39;15.90;99.90
53114;DHT22;39009;53.166;6.232;2022-10-17T14:55:35;15.90;99.90
53114;DHT22;39009;53.166;6.232;2022-10-17T14:58:01;15.90;99.90
53114;DHT22;39009;53.166;6.232;2022-10-17T15:00:39;15.90;99.90
53114;DHT22;39009;53.166;6.232;2022-10-17T15:03:05;15.90;99.90
53114;DHT22;39009;53.166;6.232;2022-10-17T15:05:30;15.90;99.90
53114;DHT22;39009;53.166;6.232;2022-10-17T15:07:56;15.90;99.90
53114;DHT22;39009;53.166;6.232;2022-10-17T15:10:28;16.00;99.90
53114;DHT22;39009;53.166;6.232;2022-10-17T15:12:54;16.20;99.90
53114;DHT22;39009;53.166;6.232;2022-10-17T15:15:20;16.00;99.90
53114;DHT22;39009;53.166;6.232;2022-10-17T15:17:48;16.00;99.90
53114;DHT22;39009;53.166;6.232;2022-10-17T15:20:15;16.00;99.90
53114;DHT22;39009;53.166;6.232;2022-10-17T15:22:41;15.90;99.90
53114;DHT22;39009;53.166;6.232;2022-10-17T15:25:07;15.90;99.90
53114;DHT22;39009;53.166;6.232;2022-10-17T15:27:32;15.80;99.90
53114;DHT22;39009;53.166;6.232;2022-10-17T15:29:58;15.80;99.90
53114;DHT22;39009;53.166;6.232;2022-10-17T15:32:23;15.80;99.90
53114;DHT22;39009;53.166;6.232;2022-10-17T15:34:49;15.70;99.90
53114;DHT22;39009;53.166;6.232;2022-10-17T15:37:17;15.70;99.90
53114;DHT22;39009;53.166;6.232;2022-10-17T15:39:47;15.60;99.90
53114;DHT22;39009;53.166;6.232;2022-10-17T15:42:17;15.60;99.90
53114;DHT22;39009;53.166;6.232;2022-10-17T15:44:43;15.50;99.90
53114;DHT22;39009;53.166;6.232;2022-10-17T15:47:17;15.50;99.90
53114;DHT22;39009;53.166;6.232;2022-10-17T15:49:44;15.40;99.90
53114;DHT22;39009;53.166;6.232;2022-10-17T15:52:09;15.40;99.90
53114;DHT22;39009;53.166;6.232;2022-10-17T15:54:35;15.30;99.90
53114;DHT22;39009;53.166;6.232;2022-10-17T15:57:00;15.30;99.90
53114;DHT22;39009;53.166;6.232;2022-10-17T15:59:31;15.30;99.90
53114;DHT22;39009;53.166;6.232;2022-10-17T16:01:57;15.30;99.90
53114;DHT22;39009;53.166;6.232;2022-10-17T16:04:23;15.30;99.90
53114;DHT22;39009;53.166;6.232;2022-10-17T16:06:51;15.20;99.90
53114;DHT22;39009;53.166;6.232;2022-10-17T16:09:17;15.20;99.90
53114;DHT22;39009;53.166;6.232;2022-10-17T16:11:43;15.20;99.90
53114;DHT22;39009;53.166;6.232;2022-10-17T16:14:09;15.10;99.90
53114;DHT22;39009;53.166;6.232;2022-10-17T16:16:35;15.10;99.90
53114;DHT22;39009;53.166;6.232;2022-10-17T16:19:01;15.00;99.90
53114;DHT22;39009;53.166;6.232;2022-10-17T16:21:28;15.00;99.90
53114;DHT22;39009;53.166;6.232;2022-10-17T16:23:55;14.90;99.90
53114;DHT22;39009;53.166;6.232;2022-10-17T16:26:20;14.90;99.90
53114;DHT22;39009;53.166;6.232;2022-10-17T16:28:46;14.90;99.90
53114;DHT22;39009;53.166;6.232;2022-10-17T16:33:45;14.70;99.90
53114;DHT22;39009;53.166;6.232;2022-10-17T16:36:11;14.70;99.90
53114;DHT22;39009;53.166;6.232;2022-10-17T16:38:36;14.70;99.90
53114;DHT22;39009;53.166;6.232;2022-10-17T16:41:02;14.70;99.90
53114;DHT22;39009;53.166;6.232;2022-10-17T16:43:27;14.70;99.90
53114;DHT22;39009;53.166;6.232;2022-10-17T16:45:56;14.60;99.90
53114;DHT22;39009;53.166;6.232;2022-10-17T16:48:22;14.60;99.90
53114;DHT22;39009;53.166;6.232;2022-10-17T16:50:47;14.60;99.90
53114;DHT22;39009;53.166;6.232;2022-10-17T16:53:13;14.50;99.90
53114;DHT22;39009;53.166;6.232;2022-10-17T16:55:38;14.50;99.90
53114;DHT22;39009;53.166;6.232;2022-10-17T16:58:04;14.40;99.90
53114;DHT22;39009;53.166;6.232;2022-10-17T17:00:30;14.40;99.90
53114;DHT22;39009;53.166;6.232;2022-10-17T17:02:55;15.30;99.90
53114;DHT22;39009;53.166;6.232;2022-10-17T17:05:21;14.40;99.90
53114;DHT22;39009;53.166;6.232;2022-10-17T17:07:46;14.30;99.90
53114;DHT22;39009;53.166;6.232;2022-10-17T17:10:12;14.30;99.90
53114;DHT22;39009;53.166;6.232;2022-10-17T17:12:37;14.30;99.90
53114;DHT22;39009;53.166;6.232;2022-10-17T17:15:03;14.30;99.90